createdAt,value
2018-10-11T00:01:50.903Z,15.70
2018-10-11T00:04:19.644Z,15.60
2018-10-11T00:06:48.312Z,15.70
2018-10-11T00:09:16.996Z,15.70
2018-10-11T00:11:45.718Z,15.60
2018-10-11T00:14:14.442Z,15.60
2018-10-11T00:16:43.124Z,15.60
2018-10-11T00:19:11.809Z,15.60
2018-10-11T00:21:40.516Z,15.50
2018-10-11T00:24:09.210Z,15.50
2018-10-11T00:26:38.193Z,15.50
2018-10-11T00:29:06.865Z,15.40
2018-10-11T00:31:35.525Z,15.50
2018-10-11T00:34:04.221Z,15.50
2018-10-11T00:36:32.907Z,15.50
2018-10-11T00:39:01.569Z,15.60
2018-10-11T00:41:30.247Z,15.50
2018-10-11T00:43:58.916Z,15.50
2018-10-11T00:46:27.599Z,15.50
2018-10-11T00:48:56.289Z,15.50
2018-10-11T00:51:24.975Z,15.50
2018-10-11T00:53:53.641Z,15.50
2018-10-11T00:56:22.318Z,15.40
2018-10-11T00:58:50.984Z,15.30
2018-10-11T01:01:19.685Z,15.40
2018-10-11T01:03:48.359Z,15.40
2018-10-11T01:06:17.050Z,15.40
2018-10-11T01:08:45.744Z,15.40
2018-10-11T01:11:14.422Z,15.40
2018-10-11T01:13:43.112Z,15.40
2018-10-11T01:16:11.799Z,15.30
2018-10-11T01:18:40.528Z,15.30
2018-10-11T01:21:09.480Z,15.30
2018-10-11T01:23:38.393Z,15.30
2018-10-11T01:26:07.130Z,15.30
2018-10-11T01:28:35.866Z,15.30
2018-10-11T01:31:09.984Z,15.30
2018-10-11T01:33:38.636Z,15.30
2018-10-11T01:36:07.300Z,15.30
2018-10-11T01:38:36.119Z,15.20
2018-10-11T01:41:04.790Z,15.20
2018-10-11T01:43:33.557Z,15.10
2018-10-11T01:46:02.237Z,15.20
2018-10-11T01:48:30.897Z,15.10
2018-10-11T01:50:59.597Z,15.10
2018-10-11T01:53:28.320Z,15.00
2018-10-11T01:55:57.041Z,14.90
2018-10-11T01:58:25.745Z,14.90
2018-10-11T02:00:54.424Z,14.90
2018-10-11T02:03:23.110Z,14.90
2018-10-11T02:05:51.785Z,14.90
2018-10-11T02:08:20.444Z,14.90
2018-10-11T02:10:49.140Z,14.90
2018-10-11T02:13:17.790Z,14.90
2018-10-11T02:15:46.483Z,14.70
2018-10-11T02:18:15.152Z,14.70
2018-10-11T02:20:43.813Z,14.80
2018-10-11T02:23:12.495Z,14.70
2018-10-11T02:25:41.213Z,14.70
2018-10-11T02:28:10.329Z,14.70
2018-10-11T02:30:39.033Z,14.70
2018-10-11T02:33:07.720Z,14.60
2018-10-11T02:35:36.417Z,14.60
2018-10-11T02:38:05.099Z,14.60
2018-10-11T02:40:33.788Z,14.60
2018-10-11T02:43:02.473Z,14.50
2018-10-11T02:45:31.175Z,14.50
2018-10-11T02:47:59.827Z,14.40
2018-10-11T02:50:28.521Z,14.50
2018-10-11T02:52:57.175Z,14.50
2018-10-11T02:55:27.011Z,14.50
2018-10-11T02:58:07.291Z,14.50
2018-10-11T03:00:36.170Z,14.50
2018-10-11T03:03:09.898Z,14.50
2018-10-11T03:05:41.166Z,14.40
2018-10-11T03:08:11.996Z,14.50
2018-10-11T03:10:40.674Z,14.50
2018-10-11T03:13:11.054Z,14.40
2018-10-11T03:15:40.162Z,14.40
2018-10-11T03:18:08.824Z,14.40
2018-10-11T03:20:37.618Z,14.50
2018-10-11T03:23:06.309Z,14.30
2018-10-11T03:25:34.983Z,14.30
2018-10-11T03:28:03.652Z,14.40
2018-10-11T03:30:32.413Z,14.40
2018-10-11T03:33:01.081Z,14.30
2018-10-11T03:35:29.766Z,14.30
2018-10-11T03:37:58.624Z,14.30
2018-10-11T03:40:27.667Z,14.40
2018-10-11T03:42:56.732Z,14.30
2018-10-11T03:45:25.595Z,14.30
2018-10-11T03:47:54.289Z,14.30
2018-10-11T03:50:22.953Z,14.20
2018-10-11T03:52:51.643Z,14.30
2018-10-11T03:55:20.353Z,14.30
2018-10-11T03:57:49.195Z,14.20
2018-10-11T04:00:18.007Z,14.20
2018-10-11T04:02:46.881Z,14.20
2018-10-11T04:05:15.738Z,14.10
2018-10-11T04:07:44.699Z,14.00
2018-10-11T04:10:13.558Z,14.00
2018-10-11T04:12:42.410Z,14.00
2018-10-11T04:15:11.234Z,14.00
2018-10-11T04:17:40.105Z,14.00
2018-10-11T04:20:08.969Z,13.90
2018-10-11T04:22:37.803Z,14.00
2018-10-11T04:25:06.605Z,13.90
2018-10-11T04:27:35.458Z,14.00
2018-10-11T04:30:04.390Z,14.00
2018-10-11T04:32:33.199Z,13.90
2018-10-11T04:35:02.101Z,13.90
2018-10-11T04:37:30.945Z,13.90
2018-10-11T04:39:59.741Z,13.80
2018-10-11T04:42:28.571Z,13.80
2018-10-11T04:44:57.531Z,13.80
2018-10-11T04:47:26.422Z,13.80
2018-10-11T04:49:55.227Z,13.80
2018-10-11T04:52:24.057Z,13.80
2018-10-11T04:54:52.971Z,13.70
2018-10-11T04:57:21.697Z,13.70
2018-10-11T04:59:50.399Z,13.70
2018-10-11T05:02:19.081Z,13.70
2018-10-11T05:04:47.825Z,13.70
2018-10-11T05:07:16.570Z,13.70
2018-10-11T05:09:45.266Z,13.70
2018-10-11T05:12:13.985Z,13.70
2018-10-11T05:14:43.139Z,13.60
2018-10-11T05:17:11.895Z,13.60
2018-10-11T05:19:40.743Z,13.60
2018-10-11T05:22:09.464Z,13.50
2018-10-11T05:24:38.193Z,13.50
2018-10-11T05:27:06.890Z,13.50
2018-10-11T05:29:35.604Z,13.50
2018-10-11T05:32:04.429Z,13.50
2018-10-11T05:34:33.116Z,13.60
2018-10-11T05:37:01.808Z,13.60
2018-10-11T05:39:30.537Z,13.60
2018-10-11T05:41:59.556Z,13.60
2018-10-11T05:44:28.423Z,13.60
2018-10-11T05:46:57.080Z,13.60
2018-10-11T05:49:25.759Z,13.60
2018-10-11T05:51:54.480Z,13.60
2018-10-11T05:54:23.184Z,13.60
2018-10-11T05:56:52.003Z,13.60
2018-10-11T05:59:20.595Z,13.60
2018-10-11T06:01:49.301Z,13.60
2018-10-11T06:04:18.224Z,13.60
2018-10-11T06:06:48.395Z,13.60
2018-10-11T06:09:17.202Z,13.50
2018-10-11T06:11:46.206Z,13.50
2018-10-11T06:14:15.145Z,13.50
2018-10-11T06:16:44.001Z,13.50
2018-10-11T06:19:13.839Z,13.50
2018-10-11T06:21:42.519Z,13.60
2018-10-11T06:24:11.488Z,13.60
2018-10-11T06:26:40.302Z,13.60
2018-10-11T06:29:09.109Z,13.50
2018-10-11T06:31:37.794Z,13.60
2018-10-11T06:34:06.684Z,13.70
2018-10-11T06:36:35.509Z,13.70
2018-10-11T06:39:05.182Z,13.80
2018-10-11T06:41:33.956Z,13.80
2018-10-11T06:44:02.649Z,13.80
2018-10-11T06:46:31.366Z,13.90
2018-10-11T06:49:00.056Z,14.00
2018-10-11T06:51:28.879Z,13.90
2018-10-11T06:53:57.602Z,13.90
2018-10-11T06:56:26.486Z,14.00
2018-10-11T06:58:55.168Z,14.00
2018-10-11T07:01:24.010Z,14.00
2018-10-11T07:03:52.885Z,14.00
2018-10-11T07:06:21.623Z,14.10
2018-10-11T07:08:50.396Z,14.10
2018-10-11T07:11:19.262Z,14.10
2018-10-11T07:13:47.950Z,14.20
2018-10-11T07:16:16.624Z,14.20
2018-10-11T07:18:45.308Z,14.20
2018-10-11T07:21:14.009Z,14.30
2018-10-11T07:23:42.697Z,14.30
2018-10-11T07:26:11.453Z,14.30
2018-10-11T07:28:40.135Z,14.30
2018-10-11T07:31:08.848Z,14.40
2018-10-11T07:33:37.549Z,14.30
2018-10-11T07:36:06.232Z,14.40
2018-10-11T07:38:35.083Z,14.40
2018-10-11T07:41:03.879Z,14.40
2018-10-11T07:43:32.658Z,14.50
2018-10-11T07:46:01.331Z,14.50
2018-10-11T07:48:30.181Z,14.60
2018-10-11T07:50:58.928Z,14.60
2018-10-11T07:53:27.712Z,14.70
2018-10-11T07:55:56.460Z,14.80
2018-10-11T07:58:25.175Z,14.80
2018-10-11T08:00:53.925Z,14.70
2018-10-11T08:03:22.839Z,14.80
2018-10-11T08:05:51.601Z,14.90
2018-10-11T08:08:20.345Z,15.00
2018-10-11T08:10:49.154Z,15.10
2018-10-11T08:13:17.826Z,15.10
2018-10-11T08:15:46.550Z,15.20
2018-10-11T08:18:15.280Z,15.30
2018-10-11T08:20:44.098Z,15.30
2018-10-11T08:23:12.763Z,15.40
2018-10-11T08:25:41.748Z,15.50
2018-10-11T08:28:10.280Z,15.60
2018-10-11T08:30:39.036Z,15.70
2018-10-11T08:33:07.743Z,15.70
2018-10-11T08:35:36.432Z,15.60
2018-10-11T08:38:05.346Z,15.70
2018-10-11T08:40:33.965Z,15.80
2018-10-11T08:43:02.708Z,15.90
2018-10-11T08:45:31.416Z,15.90
2018-10-11T08:48:00.320Z,15.90
2018-10-11T08:50:29.364Z,16.00
2018-10-11T08:52:58.214Z,16.00
2018-10-11T08:55:27.101Z,16.10
2018-10-11T08:57:55.973Z,16.30
2018-10-11T09:00:24.983Z,16.40
2018-10-11T09:02:53.968Z,16.50
2018-10-11T09:05:22.721Z,16.50
2018-10-11T09:07:51.565Z,16.50
2018-10-11T09:10:20.561Z,16.70
2018-10-11T09:12:50.085Z,16.80
2018-10-11T09:15:18.847Z,16.90
2018-10-11T09:17:47.561Z,17.20
2018-10-11T09:20:16.269Z,17.40
2018-10-11T09:22:45.054Z,17.60
2018-10-11T09:25:13.754Z,17.60
2018-10-11T09:27:42.457Z,17.70
2018-10-11T09:30:11.235Z,17.70
2018-10-11T09:32:39.861Z,17.70
2018-10-11T09:35:08.568Z,17.80
2018-10-11T09:37:37.410Z,17.80
2018-10-11T09:40:06.125Z,17.80
2018-10-11T09:42:34.834Z,17.80
2018-10-11T09:45:03.648Z,17.90
2018-10-11T09:47:32.390Z,17.80
2018-10-11T09:50:01.088Z,18.00
2018-10-11T09:52:29.796Z,18.10
2018-10-11T09:54:58.593Z,18.00
2018-10-11T09:57:30.382Z,18.00
2018-10-11T09:59:59.857Z,18.10
2018-10-11T10:02:29.081Z,18.00
2018-10-11T10:05:00.615Z,17.90
2018-10-11T10:07:29.520Z,18.20
2018-10-11T10:09:58.302Z,18.20
2018-10-11T10:12:26.969Z,18.20
2018-10-11T10:14:55.659Z,18.30
2018-10-11T10:17:24.374Z,18.30
2018-10-11T10:19:53.158Z,18.40
2018-10-11T10:22:21.857Z,18.70
2018-10-11T10:24:50.546Z,18.80
2018-10-11T10:27:19.375Z,19.00
2018-10-11T10:29:48.012Z,19.10
2018-10-11T10:32:16.722Z,19.30
2018-10-11T10:34:45.463Z,19.50
2018-10-11T10:37:14.216Z,19.70
2018-10-11T10:39:42.926Z,20.00
2018-10-11T10:42:11.700Z,20.30
2018-10-11T10:44:40.386Z,20.70
2018-10-11T10:47:09.078Z,21.00
2018-10-11T10:49:37.781Z,21.20
2018-10-11T10:52:06.598Z,21.40
2018-10-11T10:54:36.006Z,21.30
2018-10-11T10:57:05.269Z,21.60
2018-10-11T10:59:34.012Z,21.90
2018-10-11T11:02:02.973Z,22.30
2018-10-11T11:04:31.703Z,22.60
2018-10-11T11:07:00.422Z,23.00
2018-10-11T11:09:29.156Z,23.20
2018-10-11T11:11:57.896Z,23.30
2018-10-11T11:14:26.731Z,23.50
2018-10-11T11:16:55.406Z,23.60
2018-10-11T11:19:24.131Z,23.80
2018-10-11T11:21:52.833Z,23.60
2018-10-11T11:24:22.005Z,23.00
2018-10-11T11:26:50.751Z,22.30
2018-10-11T11:29:19.477Z,21.80
2018-10-11T11:31:48.165Z,21.50
2018-10-11T11:34:16.961Z,21.10
2018-10-11T11:36:45.645Z,20.80
2018-10-11T11:39:14.539Z,20.70
2018-10-11T11:41:43.238Z,20.40
2018-10-11T11:44:11.924Z,20.30
2018-10-11T11:46:40.681Z,20.20
2018-10-11T11:49:09.355Z,20.20
2018-10-11T11:51:38.074Z,20.40
2018-10-11T11:54:22.626Z,20.50
2018-10-11T11:56:52.168Z,20.50
2018-10-11T11:59:20.904Z,20.50
2018-10-11T12:01:49.610Z,20.60
2018-10-11T12:04:18.452Z,20.50
2018-10-11T12:06:47.166Z,20.50
2018-10-11T12:09:15.872Z,20.60
2018-10-11T12:11:44.664Z,20.50
2018-10-11T12:14:13.396Z,20.50
2018-10-11T12:16:42.163Z,20.40
2018-10-11T12:19:11.457Z,20.50
2018-10-11T12:21:40.454Z,20.60
2018-10-11T12:24:09.408Z,20.70
2018-10-11T12:26:38.189Z,20.70
2018-10-11T12:29:06.984Z,20.80
2018-10-11T12:31:35.584Z,20.70
2018-10-11T12:34:04.309Z,20.80
2018-10-11T12:36:33.073Z,20.90
2018-10-11T12:39:01.763Z,20.60
2018-10-11T12:41:30.457Z,20.60
2018-10-11T12:43:59.172Z,20.70
2018-10-11T12:46:27.931Z,20.70
2018-10-11T12:48:56.659Z,20.70
2018-10-11T12:51:25.351Z,20.70
2018-10-11T12:53:54.080Z,20.80
2018-10-11T12:56:22.835Z,20.80
2018-10-11T12:58:51.453Z,20.90
2018-10-11T13:01:22.977Z,21.00
2018-10-11T13:03:48.825Z,20.80
2018-10-11T13:06:17.525Z,20.70
2018-10-11T13:08:46.240Z,20.60
2018-10-11T13:11:15.030Z,20.70
2018-10-11T13:13:47.861Z,20.90
2018-10-11T13:16:12.549Z,20.90
2018-10-11T13:18:41.357Z,20.90
2018-10-11T13:21:10.037Z,21.10
2018-10-11T13:23:38.821Z,21.10
2018-10-11T13:26:07.498Z,21.20
2018-10-11T13:28:36.237Z,21.10
2018-10-11T13:31:04.907Z,21.20
2018-10-11T13:33:33.641Z,21.20
2018-10-11T13:36:02.399Z,21.10
2018-10-11T13:38:31.100Z,21.10
2018-10-11T13:41:03.079Z,21.20
2018-10-11T13:43:28.455Z,21.10
2018-10-11T13:46:00.109Z,21.30
2018-10-11T13:48:25.833Z,21.30
2018-10-11T13:50:54.561Z,21.40
2018-10-11T13:53:24.738Z,21.40
2018-10-11T13:55:56.672Z,21.50
2018-10-11T13:58:20.710Z,21.50
2018-10-11T14:00:49.430Z,21.40
2018-10-11T14:03:18.125Z,21.50
2018-10-11T14:05:47.066Z,21.50
2018-10-11T14:08:15.784Z,21.60
2018-10-11T14:10:44.607Z,21.70
2018-10-11T14:13:16.432Z,21.50
2018-10-11T14:15:42.006Z,21.60
2018-10-11T14:18:12.646Z,21.60
2018-10-11T14:20:39.474Z,21.60
2018-10-11T14:23:08.229Z,21.70
2018-10-11T14:25:37.160Z,21.60
2018-10-11T14:28:06.198Z,21.70
2018-10-11T14:30:34.996Z,21.60
2018-10-11T14:33:03.730Z,21.60
2018-10-11T14:35:32.442Z,21.50
2018-10-11T14:38:01.242Z,21.60
2018-10-11T14:40:30.104Z,21.70
2018-10-11T14:42:58.780Z,21.50
2018-10-11T14:45:27.532Z,21.60
2018-10-11T14:47:56.390Z,21.70
2018-10-11T14:50:25.251Z,21.60
2018-10-11T14:52:54.275Z,21.50
2018-10-11T14:55:23.132Z,21.60
2018-10-11T14:57:52.305Z,21.50
2018-10-11T15:00:21.313Z,21.60
2018-10-11T15:02:50.345Z,21.60
2018-10-11T15:05:19.230Z,21.60
2018-10-11T15:07:48.068Z,21.60
2018-10-11T15:10:17.028Z,21.60
2018-10-11T15:12:45.906Z,21.80
2018-10-11T15:15:14.834Z,21.80
2018-10-11T15:17:43.799Z,21.70
2018-10-11T15:20:12.646Z,21.60
2018-10-11T15:22:41.500Z,21.70
2018-10-11T15:25:10.358Z,21.60
2018-10-11T15:27:39.265Z,21.70
2018-10-11T15:30:08.557Z,21.70
2018-10-11T15:32:37.515Z,21.60
2018-10-11T15:35:06.449Z,21.60
2018-10-11T15:37:35.252Z,21.50
2018-10-11T15:40:04.016Z,21.50
2018-10-11T15:42:32.708Z,21.40
2018-10-11T15:45:01.520Z,21.40
2018-10-11T15:47:30.395Z,21.20
2018-10-11T15:49:59.297Z,21.20
2018-10-11T15:52:28.365Z,21.10
2018-10-11T15:54:57.111Z,21.00
2018-10-11T15:57:25.868Z,20.90
2018-10-11T15:59:55.756Z,20.80
2018-10-11T16:02:24.505Z,20.70
2018-10-11T16:04:53.294Z,20.60
2018-10-11T16:07:21.988Z,20.50
2018-10-11T16:09:50.673Z,20.50
2018-10-11T16:12:19.439Z,20.40
2018-10-11T16:14:48.198Z,20.40
2018-10-11T16:17:16.887Z,20.30
2018-10-11T16:19:45.650Z,20.20
2018-10-11T16:22:14.374Z,20.10
2018-10-11T16:24:43.202Z,20.10
2018-10-11T16:27:11.881Z,20.10
2018-10-11T16:29:40.728Z,20.20
2018-10-11T16:32:09.853Z,20.30
2018-10-11T16:34:38.600Z,20.20
2018-10-11T16:37:07.318Z,20.20
2018-10-11T16:39:36.064Z,20.20
2018-10-11T16:42:05.030Z,20.10
2018-10-11T16:44:33.729Z,20.00
2018-10-11T16:47:02.472Z,19.90
2018-10-11T16:49:31.203Z,19.90
2018-10-11T16:52:00.113Z,19.80
2018-10-11T16:54:29.659Z,19.70
2018-10-11T16:56:58.457Z,19.60
2018-10-11T16:59:27.175Z,19.60
2018-10-11T17:01:55.906Z,19.50
2018-10-11T17:04:24.630Z,19.50
2018-10-11T17:06:53.299Z,19.40
2018-10-11T17:09:21.980Z,19.40
2018-10-11T17:11:50.692Z,19.30
2018-10-11T17:14:19.380Z,19.40
2018-10-11T17:16:48.069Z,19.30
2018-10-11T17:19:16.758Z,19.30
2018-10-11T17:21:45.621Z,19.20
2018-10-11T17:24:14.329Z,19.10
2018-10-11T17:26:43.060Z,19.10
2018-10-11T17:29:11.813Z,19.00
2018-10-11T17:31:40.496Z,18.90
2018-10-11T17:34:09.175Z,18.90
2018-10-11T17:36:37.936Z,18.90
2018-10-11T17:39:08.161Z,18.80
2018-10-11T17:41:36.988Z,18.80
2018-10-11T17:44:05.842Z,18.80
2018-10-11T17:46:34.570Z,18.70
2018-10-11T17:49:03.300Z,18.70
2018-10-11T17:51:32.008Z,18.70
2018-10-11T17:54:00.723Z,18.70
2018-10-11T17:56:29.432Z,18.80
2018-10-11T17:58:58.187Z,18.80
2018-10-11T18:01:26.846Z,18.90
2018-10-11T18:03:55.604Z,19.00
2018-10-11T18:06:24.325Z,18.90
2018-10-11T18:08:53.102Z,18.90
2018-10-11T18:11:21.824Z,18.90
2018-10-11T18:13:50.520Z,18.90
2018-10-11T18:16:19.264Z,18.90
2018-10-11T18:18:47.905Z,18.90
2018-10-11T18:21:16.674Z,18.90
2018-10-11T18:23:45.384Z,18.90
2018-10-11T18:26:14.121Z,18.90
2018-10-11T18:28:42.934Z,18.80
2018-10-11T18:31:11.679Z,18.80
2018-10-11T18:33:40.377Z,18.80
2018-10-11T18:36:09.105Z,18.80
2018-10-11T18:38:37.891Z,18.80
2018-10-11T18:41:06.601Z,18.70
2018-10-11T18:43:35.321Z,18.70
2018-10-11T18:46:04.057Z,18.70
2018-10-11T18:48:32.809Z,18.70
2018-10-11T18:51:01.626Z,18.70
2018-10-11T18:53:30.199Z,18.70
2018-10-11T18:55:58.927Z,18.60
2018-10-11T18:58:27.642Z,18.70
2018-10-11T19:00:56.350Z,18.60
2018-10-11T19:03:25.043Z,18.60
2018-10-11T19:05:53.767Z,18.60
2018-10-11T19:08:22.502Z,18.60
2018-10-11T19:10:51.193Z,18.60
2018-10-11T19:13:19.940Z,18.60
2018-10-11T19:15:48.662Z,18.60
2018-10-11T19:18:17.355Z,18.50
2018-10-11T19:20:46.087Z,18.50
2018-10-11T19:23:14.814Z,18.40
2018-10-11T19:25:43.616Z,18.30
2018-10-11T19:28:12.459Z,18.30
2018-10-11T19:30:41.216Z,18.30
2018-10-11T19:33:09.915Z,18.30
2018-10-11T19:35:38.674Z,18.20
2018-10-11T19:38:07.386Z,18.20
2018-10-11T19:40:36.116Z,18.20
2018-10-11T19:43:04.952Z,18.20
2018-10-11T19:45:33.774Z,18.20
2018-10-11T19:48:02.497Z,18.10
2018-10-11T19:50:31.288Z,18.10
2018-10-11T19:53:00.035Z,18.20
2018-10-11T19:55:28.778Z,18.20
2018-10-11T19:57:57.483Z,18.20
2018-10-11T20:00:26.271Z,18.10
2018-10-11T20:02:54.977Z,18.10
2018-10-11T20:05:24.067Z,18.10
2018-10-11T20:07:52.924Z,18.00
2018-10-11T20:10:22.036Z,18.00
2018-10-11T20:12:50.765Z,18.00
2018-10-11T20:15:19.477Z,18.00
2018-10-11T20:17:48.170Z,17.90
2018-10-11T20:20:16.891Z,17.80
2018-10-11T20:22:45.634Z,17.80
2018-10-11T20:25:14.340Z,17.70
2018-10-11T20:27:43.531Z,17.60
2018-10-11T20:30:12.350Z,17.60
2018-10-11T20:32:41.345Z,17.60
2018-10-11T20:35:10.145Z,17.40
2018-10-11T20:37:38.976Z,17.40
2018-10-11T20:40:07.915Z,17.40
2018-10-11T20:42:36.807Z,17.40
2018-10-11T20:45:05.805Z,17.30
2018-10-11T20:47:34.547Z,17.30
2018-10-11T20:50:03.967Z,17.30
2018-10-11T20:52:32.683Z,17.30
2018-10-11T20:55:01.393Z,17.20
2018-10-11T20:57:31.396Z,17.10
2018-10-11T21:00:00.645Z,17.10
2018-10-11T21:02:29.337Z,17.10
2018-10-11T21:04:58.083Z,17.10
2018-10-11T21:07:26.769Z,17.10
2018-10-11T21:09:55.525Z,17.10
2018-10-11T21:12:24.210Z,17.00
2018-10-11T21:14:52.928Z,17.00
2018-10-11T21:17:21.614Z,17.10
2018-10-11T21:19:50.349Z,17.10
2018-10-11T21:22:19.034Z,17.10
2018-10-11T21:24:47.751Z,17.10
2018-10-11T21:27:16.531Z,17.00
2018-10-11T21:29:45.447Z,17.00
2018-10-11T21:32:14.213Z,17.00
2018-10-11T21:34:43.118Z,17.00
2018-10-11T21:37:11.996Z,17.00
2018-10-11T21:39:40.812Z,17.10
2018-10-11T21:42:09.734Z,17.00
2018-10-11T21:44:39.097Z,17.00
2018-10-11T21:47:07.900Z,17.00
2018-10-11T21:49:36.612Z,16.90
2018-10-11T21:52:05.271Z,16.90
2018-10-11T21:54:33.976Z,16.90
2018-10-11T21:57:02.666Z,16.90
2018-10-11T21:59:31.328Z,17.00
2018-10-11T22:02:00.015Z,16.90
2018-10-11T22:04:28.728Z,16.90
2018-10-11T22:06:57.446Z,17.00
2018-10-11T22:09:32.811Z,17.00
2018-10-11T22:12:01.501Z,16.90
2018-10-11T22:14:30.316Z,16.90
2018-10-11T22:16:58.983Z,16.80
2018-10-11T22:19:27.760Z,16.80
2018-10-11T22:21:56.587Z,16.70
2018-10-11T22:24:25.343Z,16.70
2018-10-11T22:26:54.057Z,16.70
2018-10-11T22:29:22.777Z,16.80
2018-10-11T22:31:51.487Z,16.80
2018-10-11T22:34:20.159Z,16.70
2018-10-11T22:36:48.896Z,16.70
2018-10-11T22:39:17.553Z,16.70
2018-10-11T22:41:46.257Z,16.70
2018-10-11T22:44:14.983Z,16.70
2018-10-11T22:46:43.651Z,16.70
2018-10-11T22:49:12.339Z,16.70
2018-10-11T22:51:41.256Z,16.70
2018-10-11T22:54:10.537Z,16.60
2018-10-11T22:56:39.257Z,16.60
2018-10-11T22:59:07.946Z,16.50
2018-10-11T23:01:37.223Z,16.50
2018-10-11T23:04:05.921Z,16.50
2018-10-11T23:06:34.617Z,16.50
2018-10-11T23:09:03.511Z,16.40
2018-10-11T23:11:32.209Z,16.50
2018-10-11T23:14:00.877Z,16.50
2018-10-11T23:16:29.564Z,16.50
2018-10-11T23:18:58.225Z,16.50
2018-10-11T23:21:26.919Z,16.50
2018-10-11T23:23:55.644Z,16.60
2018-10-11T23:26:24.431Z,16.50
2018-10-11T23:28:53.151Z,16.50
2018-10-11T23:31:21.861Z,16.50
2018-10-11T23:33:50.557Z,16.50
2018-10-11T23:36:19.264Z,16.50
2018-10-11T23:38:48.002Z,16.50
2018-10-11T23:41:16.784Z,16.60
2018-10-11T23:43:45.571Z,16.60
2018-10-11T23:46:14.279Z,16.50
2018-10-11T23:48:42.980Z,16.50
2018-10-11T23:51:11.720Z,16.50
2018-10-11T23:53:40.543Z,16.50
2018-10-11T23:56:09.239Z,16.50
2018-10-11T23:58:38.065Z,16.40
